createdAt,value
2022-11-02T00:04:09.556Z,24.95
2022-11-02T00:09:12.849Z,22.85
2022-11-02T00:14:17.526Z,19.30
2022-11-02T00:19:21.188Z,19.92
2022-11-02T00:24:24.553Z,17.98
2022-11-02T00:29:33.638Z,19.55
2022-11-02T00:34:37.655Z,21.58
2022-11-02T00:39:41.019Z,18.75
2022-11-02T00:44:45.757Z,18.92
2022-11-02T00:49:49.378Z,24.40
2022-11-02T00:54:52.714Z,21.67
2022-11-02T00:59:57.352Z,16.95
2022-11-02T01:05:01.417Z,16.83
2022-11-02T01:10:05.347Z,22.30
2022-11-02T01:15:11.422Z,17.92
2022-11-02T01:20:15.237Z,14.32
2022-11-02T01:25:18.795Z,15.35
2022-11-02T01:30:23.705Z,15.75
2022-11-02T01:35:27.060Z,15.15
2022-11-02T01:40:39.139Z,16.35
2022-11-02T01:45:44.419Z,16.95
2022-11-02T01:50:48.447Z,14.85
2022-11-02T01:55:52.801Z,14.48
2022-11-02T02:00:57.586Z,17.77
2022-11-02T02:06:06.799Z,18.85
2022-11-02T02:11:26.883Z,19.10
2022-11-02T02:22:06.461Z,16.00
2022-11-02T02:27:16.793Z,16.48
2022-11-02T02:32:28.996Z,16.95
2022-11-02T02:37:38.936Z,17.47
2022-11-02T02:42:47.720Z,17.10
2022-11-02T02:47:59.166Z,17.80
2022-11-02T02:53:05.482Z,14.82
2022-11-02T02:58:14.107Z,14.90
2022-11-02T03:03:22.291Z,18.15
2022-11-02T03:08:26.023Z,14.15
2022-11-02T03:13:43.649Z,16.48
2022-11-02T03:18:54.455Z,16.60
2022-11-02T03:24:02.283Z,15.20
2022-11-02T03:29:10.746Z,17.15
2022-11-02T03:34:23.773Z,14.93
2022-11-02T03:39:39.217Z,14.30
2022-11-02T03:44:43.190Z,17.35
2022-11-02T03:49:50.387Z,16.20
2022-11-02T03:55:03.209Z,17.15
2022-11-02T04:00:12.303Z,16.20
2022-11-02T04:05:17.844Z,16.60
2022-11-02T04:10:22.012Z,17.60
2022-11-02T04:15:25.360Z,15.63
2022-11-02T04:20:29.991Z,15.68
2022-11-02T04:25:33.670Z,15.60
2022-11-02T04:30:37.174Z,15.38
2022-11-02T04:35:42.128Z,15.07
2022-11-02T04:40:45.884Z,19.35
2022-11-02T04:45:49.145Z,16.67
2022-11-02T04:50:53.813Z,18.05
2022-11-02T04:55:57.132Z,16.88
2022-11-02T05:01:05.069Z,19.08
2022-11-02T05:06:11.641Z,18.50
2022-11-02T05:11:15.832Z,20.13
2022-11-02T05:16:19.195Z,15.77
2022-11-02T05:21:23.897Z,15.45
2022-11-02T05:26:27.456Z,18.55
2022-11-02T05:31:31.083Z,17.23
2022-11-02T05:36:35.741Z,17.40
2022-11-02T05:41:39.066Z,24.55
2022-11-02T05:46:44.366Z,19.33
2022-11-02T05:51:49.240Z,17.58
2022-11-02T05:56:52.775Z,17.23
2022-11-02T06:01:56.434Z,15.70
2022-11-02T06:07:01.142Z,18.08
2022-11-02T06:12:04.960Z,14.85
2022-11-02T06:17:08.331Z,16.73
2022-11-02T06:22:13.229Z,13.63
2022-11-02T06:27:16.799Z,15.82
2022-11-02T06:32:20.951Z,21.05
2022-11-02T06:37:25.627Z,15.63
2022-11-02T06:42:29.316Z,16.35
2022-11-02T06:47:33.416Z,14.38
2022-11-02T06:52:44.388Z,13.15
2022-11-02T06:57:47.976Z,18.35
2022-11-02T07:03:00.731Z,16.75
2022-11-02T07:13:09.841Z,17.45
2022-11-02T07:18:13.922Z,21.00
2022-11-02T07:23:18.731Z,17.38
2022-11-02T07:28:22.160Z,20.25
2022-11-02T07:33:25.559Z,17.35
2022-11-02T07:38:30.249Z,15.95
2022-11-02T07:43:33.855Z,13.95
2022-11-02T07:48:37.110Z,16.33
2022-11-02T07:53:41.809Z,15.20
2022-11-02T07:58:45.542Z,15.68
2022-11-02T08:03:48.884Z,14.20
2022-11-02T08:08:53.842Z,13.88
2022-11-02T08:14:17.185Z,14.75
2022-11-02T08:19:20.501Z,15.90
2022-11-02T08:24:25.257Z,17.00
2022-11-02T08:29:28.652Z,13.85
2022-11-02T08:34:32.038Z,12.88
2022-11-02T08:39:36.820Z,18.85
2022-11-02T08:44:42.740Z,15.25
2022-11-02T08:49:48.082Z,12.35
2022-11-02T08:54:52.827Z,11.38
2022-11-02T08:59:56.553Z,12.02
2022-11-02T09:04:59.979Z,11.50
2022-11-02T09:10:05.636Z,8.32
2022-11-02T09:15:09.963Z,7.90
2022-11-02T09:20:13.716Z,9.50
2022-11-02T09:25:19.419Z,8.55
2022-11-02T09:30:24.103Z,9.20
2022-11-02T09:35:28.968Z,7.70
2022-11-02T09:40:39.003Z,7.30
2022-11-02T09:45:54.070Z,7.43
2022-11-02T09:51:04.440Z,7.60
2022-11-02T09:56:11.113Z,10.80
2022-11-02T10:01:25.198Z,8.73
2022-11-02T10:06:30.415Z,5.05
2022-11-02T10:11:48.570Z,8.35
2022-11-02T10:16:58.475Z,8.38
2022-11-02T10:22:02.442Z,6.70
2022-11-02T10:27:16.144Z,8.30
2022-11-02T10:32:19.823Z,5.28
2022-11-02T10:37:39.463Z,6.05
2022-11-02T10:43:01.218Z,7.25
2022-11-02T10:48:12.075Z,8.63
2022-11-02T10:58:49.302Z,7.60
2022-11-02T11:03:58.676Z,10.37
2022-11-02T11:09:06.513Z,7.75
2022-11-02T11:19:49.274Z,5.97
2022-11-02T11:24:53.118Z,7.43
2022-11-02T11:30:00.111Z,7.90
2022-11-02T11:35:06.436Z,8.18
2022-11-02T11:40:20.722Z,7.72
2022-11-02T11:45:27.907Z,7.45
2022-11-02T11:50:31.464Z,5.00
2022-11-02T11:55:36.108Z,10.07
2022-11-02T12:00:40.877Z,9.57
2022-11-02T12:05:55.772Z,6.78
2022-11-02T12:11:18.951Z,6.50
2022-11-02T12:16:35.221Z,5.93
2022-11-02T12:21:48.085Z,5.55
2022-11-02T12:27:02.451Z,5.45
2022-11-02T12:32:18.914Z,6.30
2022-11-02T12:37:40.424Z,5.28
2022-11-02T12:42:53.004Z,5.03
2022-11-02T12:48:00.299Z,7.07
2022-11-02T12:53:13.659Z,6.80
2022-11-02T12:58:22.168Z,4.70
2022-11-02T13:03:36.021Z,5.13
2022-11-02T13:08:45.587Z,6.75
2022-11-02T13:13:53.119Z,8.10
2022-11-02T13:18:59.668Z,6.07
2022-11-02T13:24:03.436Z,5.85
2022-11-02T13:29:13.289Z,5.95
2022-11-02T13:34:24.012Z,5.65
2022-11-02T13:39:34.758Z,9.68
2022-11-02T13:45:03.139Z,6.07
2022-11-02T13:50:13.799Z,4.57
2022-11-02T13:55:22.697Z,9.00
2022-11-02T14:00:31.695Z,4.80
2022-11-02T14:05:44.660Z,10.55
2022-11-02T14:11:04.722Z,7.68
2022-11-02T14:16:09.891Z,5.85
2022-11-02T14:21:43.139Z,7.80
2022-11-02T14:26:58.035Z,7.28
2022-11-02T14:32:06.778Z,6.10
2022-11-02T14:37:34.397Z,6.93
2022-11-02T14:43:08.147Z,4.30
2022-11-02T14:48:16.853Z,7.90
2022-11-02T14:53:27.339Z,7.70
2022-11-02T14:58:35.014Z,6.68
2022-11-02T15:03:41.310Z,4.63
2022-11-02T15:08:54.331Z,7.65
2022-11-02T15:13:57.721Z,8.75
2022-11-02T15:19:34.333Z,5.18
2022-11-02T15:24:40.138Z,8.18
2022-11-02T15:29:45.241Z,5.70
2022-11-02T15:34:50.994Z,6.05
2022-11-02T15:39:58.082Z,7.90
2022-11-02T15:51:01.109Z,8.95
2022-11-02T15:56:18.025Z,8.38
2022-11-02T16:01:23.121Z,8.05
2022-11-02T16:06:28.419Z,4.78
2022-11-02T16:11:33.207Z,12.25
2022-11-02T16:16:47.330Z,6.10
2022-11-02T16:21:51.520Z,6.68
2022-11-02T16:26:56.298Z,9.60
2022-11-02T16:32:00.507Z,9.88
2022-11-02T16:37:09.134Z,9.25
2022-11-02T16:42:22.625Z,8.43
2022-11-02T16:47:41.350Z,8.98
2022-11-02T16:52:55.065Z,8.73
2022-11-02T16:58:03.359Z,13.02
2022-11-02T17:03:15.534Z,10.07
2022-11-02T17:08:31.551Z,9.67
2022-11-02T17:13:44.326Z,10.55
2022-11-02T17:18:48.199Z,9.85
2022-11-02T17:23:52.283Z,17.00
2022-11-02T17:28:58.523Z,12.82
2022-11-02T17:34:08.939Z,10.55
2022-11-02T17:39:14.561Z,9.65
2022-11-02T17:44:19.235Z,12.18
2022-11-02T17:49:22.639Z,15.90
2022-11-02T17:54:26.168Z,12.48
2022-11-02T17:59:30.869Z,11.07
2022-11-02T18:04:34.647Z,14.32
2022-11-02T18:09:38.101Z,17.77
2022-11-02T18:14:43.712Z,15.80
2022-11-02T18:19:47.402Z,11.27
2022-11-02T18:24:51.187Z,18.25
2022-11-02T18:29:55.948Z,11.27
2022-11-02T18:34:59.701Z,16.05
2022-11-02T18:40:03.316Z,11.50
2022-11-02T18:45:10.121Z,13.38
2022-11-02T18:50:14.607Z,13.73
2022-11-02T18:55:18.516Z,13.98
2022-11-02T19:00:24.068Z,16.42
2022-11-02T19:05:45.177Z,13.35
2022-11-02T19:10:49.033Z,13.27
2022-11-02T19:15:53.856Z,11.43
2022-11-02T19:20:57.230Z,10.93
2022-11-02T19:26:00.693Z,13.77
2022-11-02T19:31:08.301Z,16.38
2022-11-02T19:36:12.060Z,10.82
2022-11-02T19:41:16.995Z,11.80
2022-11-02T19:46:23.257Z,14.00
2022-11-02T19:51:28.509Z,12.80
2022-11-02T19:56:33.878Z,11.77
2022-11-02T20:01:42.076Z,10.30
2022-11-02T20:06:46.010Z,13.07
2022-11-02T20:11:49.427Z,14.02
2022-11-02T20:17:10.614Z,12.18
2022-11-02T20:22:18.433Z,9.75
2022-11-02T20:27:21.923Z,9.55
2022-11-02T20:32:26.771Z,9.10
2022-11-02T20:37:30.598Z,10.57
2022-11-02T20:42:36.232Z,12.35
2022-11-02T20:47:41.378Z,8.57
2022-11-02T20:52:45.743Z,9.93
2022-11-02T20:57:49.995Z,11.13
2022-11-02T21:02:54.835Z,12.82
2022-11-02T21:07:58.250Z,10.95
2022-11-02T21:13:19.296Z,9.10
2022-11-02T21:18:24.319Z,12.63
2022-11-02T21:23:27.684Z,14.60
2022-11-02T21:28:31.908Z,9.65
2022-11-02T21:33:36.857Z,10.40
2022-11-02T21:38:40.998Z,13.35
2022-11-02T21:43:44.928Z,11.07
2022-11-02T21:48:49.924Z,11.88
2022-11-02T21:53:53.758Z,16.50
2022-11-02T21:58:57.207Z,15.00
2022-11-02T22:04:02.966Z,11.98
2022-11-02T22:09:08.411Z,15.73
2022-11-02T22:14:12.920Z,10.10
2022-11-02T22:19:17.719Z,12.07
2022-11-02T22:24:21.764Z,11.05
2022-11-02T22:29:25.192Z,11.93
2022-11-02T22:34:30.172Z,10.18
2022-11-02T22:39:33.786Z,9.00
2022-11-02T22:44:37.471Z,11.13
2022-11-02T22:49:42.784Z,11.38
2022-11-02T22:54:46.449Z,14.35
2022-11-02T22:59:49.827Z,11.95
2022-11-02T23:04:54.573Z,8.38
2022-11-02T23:09:58.234Z,12.35
2022-11-02T23:15:01.934Z,10.38
2022-11-02T23:20:07.634Z,14.48
2022-11-02T23:25:15.196Z,14.40
2022-11-02T23:30:36.334Z,15.18
2022-11-02T23:35:58.759Z,10.10
2022-11-02T23:41:02.354Z,11.65
2022-11-02T23:46:06.381Z,11.68
2022-11-02T23:51:29.086Z,14.18
2022-11-02T23:56:46.469Z,9.50
